Time,TemperatureF,DewpointF,PressureIn,WindDirection,WindDirectionDegrees,WindSpeedMPH,WindSpeedGustMPH,Humidity,HourlyPrecipIn,Conditions,Clouds,dailyrainin,SoftwareType,DateUTC
2013-07-04 00:01:00,65.0,7.1,29.46,North,0,0.0,0.0,1,0.00,,,0.00,WUHU216HW,2013-07-04 04:01:00,
2013-07-04 00:02:00,65.0,7.1,29.46,North,0,0.0,0.0,1,0.00,,,0.00,WUHU216HW,2013-07-04 04:02:00,
2013-07-04 00:07:00,64.8,6.9,29.46,North,0,0.0,0.0,1,0.00,,,0.00,WUHU216HW,2013-07-04 04:07:00,
2013-07-04 00:12:00,64.8,6.9,29.46,North,0,0.0,0.0,1,0.00,,,0.00,WUHU216HW,2013-07-04 04:12:00,
2013-07-04 00:17:00,64.6,6.9,29.47,North,0,0.0,0.0,1,0.00,,,0.00,WUHU216HW,2013-07-04 04:17:00,
2013-07-04 00:22:00,64.4,6.7,29.47,North,0,0.0,0.0,1,0.00,,,0.00,WUHU216HW,2013-07-04 04:22:00,
2013-07-04 00:27:00,64.3,6.6,29.46,North,0,0.0,0.0,1,0.00,,,0.00,WUHU216HW,2013-07-04 04:27:00,
2013-07-04 00:32:00,64.3,6.6,29.46,North,0,0.0,0.0,1,0.00,,,0.00,WUHU216HW,2013-07-04 04:32:00,
2013-07-04 00:37:00,64.1,6.4,29.46,North,0,0.0,0.0,1,0.00,,,0.00,WUHU216HW,2013-07-04 04:37:00,
2013-07-04 00:43:00,63.9,6.3,29.46,North,0,0.0,0.0,1,0.00,,,0.00,WUHU216HW,2013-07-04 04:43:00,
2013-07-04 00:48:00,63.9,6.3,29.46,North,0,0.0,0.0,1,0.00,,,0.00,WUHU216HW,2013-07-04 04:48:00,
2013-07-04 00:53:00,63.7,6.1,29.46,North,0,0.0,0.0,1,0.00,,,0.00,WUHU216HW,2013-07-04 04:53:00,
2013-07-04 00:58:00,63.7,6.1,29.46,North,0,0.0,0.0,1,0.00,,,0.00,WUHU216HW,2013-07-04 04:58:00,
2013-07-04 01:03:00,63.5,6.0,29.46,North,0,0.0,0.0,1,0.00,,,0.00,WUHU216HW,2013-07-04 05:03:00,
2013-07-04 01:08:00,63.4,6.0,29.46,North,0,0.0,0.0,1,0.00,,,0.00,WUHU216HW,2013-07-04 05:08:00,
2013-07-04 01:13:00,63.4,6.0,29.46,North,0,0.0,0.0,1,0.00,,,0.00,WUHU216HW,2013-07-04 05:13:00,
2013-07-04 01:18:00,63.2,5.8,29.46,North,0,0.0,0.0,1,0.00,,,0.00,WUHU216HW,2013-07-04 05:18:00,
2013-07-04 01:23:00,63.2,5.8,29.46,North,0,0.0,0.0,1,0.00,,,0.00,WUHU216HW,2013-07-04 05:23:00,
2013-07-04 01:28:00,63.2,5.8,29.46,North,0,0.0,0.0,1,0.00,,,0.00,WUHU216HW,2013-07-04 05:28:00,
2013-07-04 01:34:00,63.0,5.7,29.46,North,0,0.0,0.0,1,0.00,,,0.00,WUHU216HW,2013-07-04 05:34:00,
2013-07-04 01:39:00,63.0,5.7,29.46,North,0,0.0,0.0,1,0.00,,,0.00,WUHU216HW,2013-07-04 05:39:00,
2013-07-04 01:44:00,63.0,5.7,29.46,North,0,0.0,0.0,1,0.00,,,0.00,WUHU216HW,2013-07-04 05:44:00,
2013-07-04 01:49:00,62.8,5.5,29.46,North,0,0.0,0.0,1,0.00,,,0.00,WUHU216HW,2013-07-04 05:49:00,
2013-07-04 01:54:00,62.6,5.4,29.46,North,0,0.0,0.0,1,0.00,,,0.00,WUHU216HW,2013-07-04 05:54:00,
2013-07-04 01:59:00,62.6,5.4,29.46,North,0,0.0,0.0,1,0.00,,,0.00,WUHU216HW,2013-07-04 05:59:00,
2013-07-04 02:04:00,62.8,5.5,29.46,North,0,0.0,0.0,1,0.00,,,0.00,WUHU216HW,2013-07-04 06:04:00,
2013-07-04 02:09:00,62.8,5.5,29.47,North,0,0.0,0.0,1,0.00,,,0.00,WUHU216HW,2013-07-04 06:09:00,
2013-07-04 02:14:00,62.8,5.5,29.46,North,0,0.0,0.0,1,0.00,,,0.00,WUHU216HW,2013-07-04 06:14:00,
2013-07-04 02:19:00,62.8,5.5,29.46,North,0,0.0,0.0,1,0.00,,,0.00,WUHU216HW,2013-07-04 06:19:00,
2013-07-04 02:24:00,62.6,5.4,29.46,North,0,0.0,0.0,1,0.00,,,0.00,WUHU216HW,2013-07-04 06:24:00,
2013-07-04 02:29:00,62.6,5.4,29.46,North,0,0.0,0.0,1,0.00,,,0.00,WUHU216HW,2013-07-04 06:29:00,
2013-07-04 02:34:00,62.6,5.4,29.46,North,0,0.0,0.0,1,0.00,,,0.00,WUHU216HW,2013-07-04 06:34:00,
2013-07-04 02:39:00,62.5,5.2,29.46,North,0,0.0,0.0,1,0.00,,,0.00,WUHU216HW,2013-07-04 06:39:00,
2013-07-04 02:44:00,62.5,5.2,29.46,North,0,0.0,0.0,1,0.00,,,0.00,WUHU216HW,2013-07-04 06:44:00,
2013-07-04 02:50:00,62.5,5.2,29.46,North,0,0.0,0.0,1,0.00,,,0.00,WUHU216HW,2013-07-04 06:50:00,
2013-07-04 02:55:00,62.5,5.2,29.46,North,0,0.0,0.0,1,0.00,,,0.00,WUHU216HW,2013-07-04 06:55:00,
2013-07-04 03:00:00,62.5,5.2,29.46,North,0,0.0,0.0,1,0.00,,,0.00,WUHU216HW,2013-07-04 07:00:00,
2013-07-04 03:05:00,62.3,5.1,29.46,North,0,0.0,0.0,1,0.00,,,0.00,WUHU216HW,2013-07-04 07:05:00,
2013-07-04 03:10:00,62.3,5.1,29.46,North,0,0.0,0.0,1,0.00,,,0.00,WUHU216HW,2013-07-04 07:10:00,
2013-07-04 03:15:00,62.3,5.1,29.46,North,0,0.0,0.0,1,0.00,,,0.00,WUHU216HW,2013-07-04 07:15:00,
2013-07-04 03:20:00,62.3,5.1,29.46,North,0,0.0,0.0,1,0.00,,,0.00,WUHU216HW,2013-07-04 07:20:00,
2013-07-04 03:25:00,62.3,5.1,29.46,North,0,0.0,0.0,1,0.00,,,0.00,WUHU216HW,2013-07-04 07:25:00,
2013-07-04 03:30:00,62.3,5.1,29.46,North,0,0.0,0.0,1,0.00,,,0.00,WUHU216HW,2013-07-04 07:30:00,
2013-07-04 03:36:00,62.5,5.2,29.46,North,0,0.0,0.0,1,0.00,,,0.00,WUHU216HW,2013-07-04 07:36:00,
2013-07-04 03:40:00,62.5,5.2,29.46,North,0,0.0,0.0,1,0.00,,,0.00,WUHU216HW,2013-07-04 07:40:00,
2013-07-04 03:45:00,62.6,5.4,29.46,North,0,0.0,0.0,1,0.00,,,0.00,WUHU216HW,2013-07-04 07:45:00,
2013-07-04 03:50:00,62.6,5.4,29.46,North,0,0.0,0.0,1,0.00,,,0.00,WUHU216HW,2013-07-04 07:50:00,
2013-07-04 03:55:00,62.5,5.2,29.46,North,0,0.0,0.0,1,0.00,,,0.00,WUHU216HW,2013-07-04 07:55:00,
2013-07-04 04:01:00,62.3,5.1,29.46,North,0,0.0,0.0,1,0.00,,,0.00,WUHU216HW,2013-07-04 08:01:00,
2013-07-04 04:06:00,62.3,5.1,29.46,North,0,0.0,0.0,1,0.00,,,0.00,WUHU216HW,2013-07-04 08:06:00,
2013-07-04 04:11:00,62.3,5.1,29.46,North,0,0.0,0.0,1,0.00,,,0.00,WUHU216HW,2013-07-04 08:11:00,
2013-07-04 04:16:00,62.1,5.0,29.47,North,0,0.0,0.0,1,0.00,,,0.00,WUHU216HW,2013-07-04 08:16:00,
2013-07-04 04:21:00,61.9,4.9,29.47,North,0,0.0,0.0,1,0.00,,,0.00,WUHU216HW,2013-07-04 08:21:00,
2013-07-04 04:26:00,61.9,4.9,29.47,North,0,0.0,0.0,1,0.00,,,0.00,WUHU216HW,2013-07-04 08:26:00,
2013-07-04 04:31:00,62.1,5.0,29.47,North,0,0.0,0.0,1,0.00,,,0.00,WUHU216HW,2013-07-04 08:31:00,
2013-07-04 04:36:00,61.9,4.9,29.47,North,0,0.0,0.0,1,0.00,,,0.00,WUHU216HW,2013-07-04 08:36:00,
2013-07-04 04:41:00,61.9,4.9,29.47,North,0,0.0,0.0,1,0.00,,,0.00,WUHU216HW,2013-07-04 08:41:00,
2013-07-04 04:46:00,61.9,4.9,29.47,North,0,0.0,0.0,1,0.00,,,0.00,WUHU216HW,2013-07-04 08:46:00,
2013-07-04 04:51:00,61.9,4.9,29.47,North,0,0.0,0.0,1,0.00,,,0.00,WUHU216HW,2013-07-04 08:51:00,
2013-07-04 04:57:00,61.7,4.7,29.47,North,0,0.0,0.0,1,0.00,,,0.00,WUHU216HW,2013-07-04 08:57:00,
2013-07-04 05:02:00,61.7,4.7,29.47,North,0,0.0,0.0,1,0.00,,,0.00,WUHU216HW,2013-07-04 09:02:00,
2013-07-04 05:07:00,61.7,4.7,29.47,North,0,0.0,0.0,1,0.00,,,0.00,WUHU216HW,2013-07-04 09:07:00,
2013-07-04 05:12:00,61.6,4.5,29.47,North,0,0.0,0.0,1,0.00,,,0.00,WUHU216HW,2013-07-04 09:12:00,
2013-07-04 05:17:00,61.6,4.5,29.47,North,0,0.0,0.0,1,0.00,,,0.00,WUHU216HW,2013-07-04 09:17:00,
2013-07-04 05:22:00,61.7,4.7,29.47,North,0,0.0,0.0,1,0.00,,,0.00,WUHU216HW,2013-07-04 09:22:00,
2013-07-04 05:27:00,61.7,4.7,29.47,North,0,0.0,0.0,1,0.00,,,0.00,WUHU216HW,2013-07-04 09:27:00,
2013-07-04 05:32:00,61.7,4.7,29.47,North,0,0.0,0.0,1,0.00,,,0.00,WUHU216HW,2013-07-04 09:32:00,
2013-07-04 05:37:00,61.6,4.5,29.47,North,0,0.0,0.0,1,0.00,,,0.00,WUHU216HW,2013-07-04 09:37:00,
2013-07-04 05:42:00,61.6,4.5,29.47,North,0,0.0,0.0,1,0.00,,,0.00,WUHU216HW,2013-07-04 09:42:00,
2013-07-04 05:47:00,61.6,4.5,29.47,North,0,0.0,0.0,1,0.00,,,0.00,WUHU216HW,2013-07-04 09:47:00,
2013-07-04 05:52:00,61.7,4.7,29.47,North,0,0.0,0.0,1,0.00,,,0.00,WUHU216HW,2013-07-04 09:52:00,
2013-07-04 05:57:00,61.7,4.7,29.47,North,0,0.0,0.0,1,0.00,,,0.00,WUHU216HW,2013-07-04 09:57:00,
2013-07-04 06:02:00,61.7,4.7,29.47,North,0,0.0,0.0,1,0.00,,,0.00,WUHU216HW,2013-07-04 10:02:00,
2013-07-04 06:07:00,61.6,4.5,29.47,North,0,0.0,0.0,1,0.00,,,0.00,WUHU216HW,2013-07-04 10:07:00,
2013-07-04 06:12:00,61.6,4.5,29.47,North,0,0.0,0.0,1,0.00,,,0.00,WUHU216HW,2013-07-04 10:12:00,
2013-07-04 06:17:00,61.6,4.5,29.47,North,0,0.0,0.0,1,0.00,,,0.00,WUHU216HW,2013-07-04 10:17:00,
2013-07-04 06:22:00,61.6,4.5,29.47,North,0,0.0,0.0,1,0.00,,,0.00,WUHU216HW,2013-07-04 10:22:00,
2013-07-04 06:27:00,61.7,4.7,29.47,North,0,0.0,0.0,1,0.00,,,0.00,WUHU216HW,2013-07-04 10:27:00,
2013-07-04 06:32:00,61.9,4.9,29.47,North,0,0.0,0.0,1,0.00,,,0.00,WUHU216HW,2013-07-04 10:32:00,
2013-07-04 06:37:00,61.9,4.9,29.47,North,0,0.0,0.0,1,0.00,,,0.00,WUHU216HW,2013-07-04 10:37:00,
2013-07-04 06:42:00,61.9,4.9,29.48,North,0,0.0,0.0,1,0.00,,,0.00,WUHU216HW,2013-07-04 10:42:00,
2013-07-04 06:48:00,61.9,4.9,29.47,North,0,0.0,0.0,1,0.00,,,0.00,WUHU216HW,2013-07-04 10:48:00,
2013-07-04 06:53:00,61.9,4.9,29.47,North,0,0.0,0.0,1,0.00,,,0.00,WUHU216HW,2013-07-04 10:53:00,
2013-07-04 06:58:00,61.9,4.9,29.47,North,0,0.0,0.0,1,0.00,,,0.00,WUHU216HW,2013-07-04 10:58:00,
2013-07-04 07:03:00,62.1,5.0,29.48,North,0,0.0,0.0,1,0.00,,,0.00,WUHU216HW,2013-07-04 11:03:00,
2013-07-04 07:08:00,62.3,5.1,29.48,North,0,0.0,0.0,1,0.00,,,0.00,WUHU216HW,2013-07-04 11:08:00,
2013-07-04 07:13:00,62.3,5.1,29.48,North,0,0.0,0.0,1,0.00,,,0.00,WUHU216HW,2013-07-04 11:13:00,
2013-07-04 07:18:00,62.5,5.2,29.48,North,0,0.0,0.0,1,0.00,,,0.00,WUHU216HW,2013-07-04 11:18:00,
2013-07-04 07:23:00,62.6,5.4,29.48,North,0,0.0,0.0,1,0.00,,,0.00,WUHU216HW,2013-07-04 11:23:00,
2013-07-04 07:28:00,62.8,5.5,29.48,North,0,0.0,0.0,1,0.00,,,0.00,WUHU216HW,2013-07-04 11:28:00,
2013-07-04 07:33:00,63.0,5.7,29.48,North,0,0.0,0.0,1,0.00,,,0.00,WUHU216HW,2013-07-04 11:33:00,
2013-07-04 07:38:00,63.4,6.0,29.48,North,0,0.0,0.0,1,0.00,,,0.00,WUHU216HW,2013-07-04 11:38:00,
2013-07-04 07:43:00,63.5,6.0,29.48,North,0,0.0,0.0,1,0.00,,,0.00,WUHU216HW,2013-07-04 11:43:00,
2013-07-04 07:48:00,63.9,6.3,29.49,North,0,0.0,0.0,1,0.00,,,0.00,WUHU216HW,2013-07-04 11:48:00,
2013-07-04 07:53:00,64.4,6.7,29.49,North,0,0.0,0.0,1,0.00,,,0.00,WUHU216HW,2013-07-04 11:53:00,
2013-07-04 07:58:00,64.8,6.9,29.49,North,0,0.0,0.0,1,0.00,,,0.00,WUHU216HW,2013-07-04 11:58:00,
2013-07-04 08:03:00,65.0,7.1,29.50,North,0,0.0,0.0,1,0.00,,,0.00,WUHU216HW,2013-07-04 12:03:00,
2013-07-04 08:08:00,65.3,7.4,29.50,North,0,0.0,0.0,1,0.00,,,0.00,WUHU216HW,2013-07-04 12:08:00,
2013-07-04 08:14:00,65.5,7.6,29.50,North,0,0.0,0.0,1,0.00,,,0.00,WUHU216HW,2013-07-04 12:14:00,
2013-07-04 08:19:00,65.7,7.7,29.50,North,0,0.0,0.0,1,0.00,,,0.00,WUHU216HW,2013-07-04 12:19:00,
2013-07-04 08:24:00,66.1,7.9,29.50,North,0,0.0,0.0,1,0.00,,,0.00,WUHU216HW,2013-07-04 12:24:00,
2013-07-04 08:29:00,66.4,8.3,29.50,North,0,0.0,0.0,1,0.00,,,0.00,WUHU216HW,2013-07-04 12:29:00,
2013-07-04 08:34:00,66.6,8.4,29.50,North,0,0.0,0.0,1,0.00,,,0.00,WUHU216HW,2013-07-04 12:34:00,
2013-07-04 08:39:00,66.8,8.6,29.50,North,0,0.0,0.0,1,0.00,,,0.00,WUHU216HW,2013-07-04 12:39:00,
2013-07-04 08:44:00,67.3,9.0,29.50,North,0,0.0,0.0,1,0.00,,,0.00,WUHU216HW,2013-07-04 12:44:00,
2013-07-04 08:49:00,67.7,9.3,29.50,North,0,0.0,0.0,1,0.00,,,0.00,WUHU216HW,2013-07-04 12:49:00,
2013-07-04 08:54:00,68.0,9.5,29.50,North,0,0.0,0.0,1,0.00,,,0.00,WUHU216HW,2013-07-04 12:54:00,
2013-07-04 08:59:00,68.2,9.6,29.50,North,0,0.0,0.0,1,0.00,,,0.00,WUHU216HW,2013-07-04 12:59:00,
2013-07-04 09:04:00,68.6,9.9,29.50,North,0,0.0,0.0,1,0.00,,,0.00,WUHU216HW,2013-07-04 13:04:00,
2013-07-04 09:09:00,68.9,10.2,29.50,North,0,0.0,0.0,1,0.00,,,0.00,WUHU216HW,2013-07-04 13:09:00,
2013-07-04 09:14:00,69.1,10.3,29.50,North,0,0.0,0.0,1,0.00,,,0.00,WUHU216HW,2013-07-04 13:14:00,
2013-07-04 09:19:00,69.5,10.5,29.50,North,0,0.0,0.0,1,0.00,,,0.00,WUHU216HW,2013-07-04 13:19:00,
2013-07-04 09:25:00,70.0,11.0,29.51,North,0,0.0,0.0,1,0.00,,,0.00,WUHU216HW,2013-07-04 13:25:00,
2013-07-04 09:29:00,70.4,11.3,29.50,North,0,0.0,0.0,1,0.00,,,0.00,WUHU216HW,2013-07-04 13:29:00,
2013-07-04 09:34:00,70.7,11.5,29.50,North,0,0.0,0.0,1,0.00,,,0.00,WUHU216HW,2013-07-04 13:34:00,
2013-07-04 09:39:00,70.9,11.7,29.50,North,0,0.0,0.0,1,0.00,,,0.00,WUHU216HW,2013-07-04 13:39:00,
2013-07-04 09:45:00,71.3,12.0,29.50,North,0,0.0,0.0,1,0.00,,,0.00,WUHU216HW,2013-07-04 13:45:00,
2013-07-04 09:50:00,71.3,12.0,29.51,North,0,0.0,0.0,1,0.00,,,0.00,WUHU216HW,2013-07-04 13:50:00,
2013-07-04 09:55:00,71.5,12.1,29.51,North,0,0.0,0.0,1,0.00,,,0.00,WUHU216HW,2013-07-04 13:55:00,
2013-07-04 10:00:00,71.3,12.0,29.50,North,0,0.0,0.0,1,0.00,,,0.00,WUHU216HW,2013-07-04 14:00:00,
2013-07-04 10:05:00,71.5,12.1,29.50,North,0,0.0,0.0,1,0.00,,,0.00,WUHU216HW,2013-07-04 14:05:00,
2013-07-04 10:10:00,71.6,12.2,29.50,North,0,0.0,0.0,1,0.00,,,0.00,WUHU216HW,2013-07-04 14:10:00,
2013-07-04 10:15:00,71.8,12.4,29.50,North,0,0.0,0.0,1,0.00,,,0.00,WUHU216HW,2013-07-04 14:15:00,
2013-07-04 10:20:00,72.0,12.5,29.50,North,0,0.0,0.0,1,0.00,,,0.00,WUHU216HW,2013-07-04 14:20:00,
2013-07-04 10:25:00,71.6,12.2,29.50,North,0,0.0,0.0,1,0.00,,,0.00,WUHU216HW,2013-07-04 14:25:00,
2013-07-04 10:30:00,72.0,12.5,29.50,North,0,0.0,0.0,1,0.00,,,0.00,WUHU216HW,2013-07-04 14:30:00,
2013-07-04 10:35:00,72.2,12.7,29.50,North,0,0.0,0.0,1,0.00,,,0.00,WUHU216HW,2013-07-04 14:35:00,
2013-07-04 10:40:00,72.4,12.8,29.50,North,0,0.0,0.0,1,0.00,,,0.00,WUHU216HW,2013-07-04 14:40:00,
2013-07-04 10:45:00,72.5,13.0,29.50,North,0,0.0,0.0,1,0.00,,,0.00,WUHU216HW,2013-07-04 14:45:00,
2013-07-04 10:50:00,72.7,13.2,29.50,North,0,0.0,0.0,1,0.00,,,0.00,WUHU216HW,2013-07-04 14:50:00,
2013-07-04 10:55:00,72.7,13.2,29.49,North,0,0.0,0.0,1,0.00,,,0.00,WUHU216HW,2013-07-04 14:55:00,
2013-07-04 11:00:00,72.4,12.8,29.50,North,0,0.0,0.0,1,0.00,,,0.00,WUHU216HW,2013-07-04 15:00:00,
2013-07-04 11:05:00,72.9,13.2,29.50,North,0,0.0,0.0,1,0.00,,,0.00,WUHU216HW,2013-07-04 15:05:00,
2013-07-04 11:10:00,73.4,13.7,29.50,North,0,0.0,0.0,1,0.00,,,0.00,WUHU216HW,2013-07-04 15:10:00,
2013-07-04 11:16:00,74.2,14.2,29.50,North,0,0.0,0.0,1,0.00,,,0.00,WUHU216HW,2013-07-04 15:16:00,
2013-07-04 11:21:00,74.9,14.7,29.50,North,0,0.0,0.0,1,0.00,,,0.00,WUHU216HW,2013-07-04 15:21:00,
2013-07-04 11:26:00,74.9,14.7,29.50,North,0,0.0,0.0,1,0.00,,,0.00,WUHU216HW,2013-07-04 15:26:00,
2013-07-04 11:31:00,75.2,14.9,29.50,North,0,0.0,0.0,1,0.00,,,0.00,WUHU216HW,2013-07-04 15:31:00,
2013-07-04 11:36:00,75.6,15.2,29.50,North,0,0.0,0.0,1,0.00,,,0.00,WUHU216HW,2013-07-04 15:36:00,
2013-07-04 11:41:00,75.2,14.9,29.50,North,0,0.0,0.0,1,0.00,,,0.00,WUHU216HW,2013-07-04 15:41:00,
2013-07-04 11:46:00,75.4,15.1,29.50,North,0,0.0,0.0,1,0.00,,,0.00,WUHU216HW,2013-07-04 15:46:00,
2013-07-04 11:51:00,75.6,15.2,29.50,North,0,0.0,0.0,1,0.00,,,0.00,WUHU216HW,2013-07-04 15:51:00,
2013-07-04 11:56:00,75.6,15.2,29.50,North,0,0.0,0.0,1,0.00,,,0.00,WUHU216HW,2013-07-04 15:56:00,
2013-07-04 12:01:00,75.1,14.9,29.51,North,0,0.0,0.0,1,0.00,,,0.00,WUHU216HW,2013-07-04 16:01:00,
2013-07-04 12:06:00,75.8,15.4,29.50,North,0,0.0,0.0,1,0.00,,,0.00,WUHU216HW,2013-07-04 16:06:00,
2013-07-04 12:11:00,75.8,15.4,29.50,North,0,0.0,0.0,1,0.00,,,0.00,WUHU216HW,2013-07-04 16:11:00,
2013-07-04 12:16:00,76.3,15.9,29.50,North,0,0.0,0.0,1,0.00,,,0.00,WUHU216HW,2013-07-04 16:16:00,
2013-07-04 12:21:00,77.0,16.4,29.50,North,0,0.0,0.0,1,0.00,,,0.00,WUHU216HW,2013-07-04 16:21:00,
2013-07-04 12:26:00,77.8,16.9,29.51,North,0,0.0,0.0,1,0.00,,,0.00,WUHU216HW,2013-07-04 16:26:00,
2013-07-04 12:31:00,77.8,16.9,29.51,North,0,0.0,0.0,1,0.00,,,0.00,WUHU216HW,2013-07-04 16:31:00,
2013-07-04 12:36:00,78.7,17.6,29.50,North,0,0.0,0.0,1,0.00,,,0.00,WUHU216HW,2013-07-04 16:36:00,
2013-07-04 12:41:00,78.5,17.4,29.50,North,0,0.0,0.0,1,0.00,,,0.00,WUHU216HW,2013-07-04 16:41:00,
2013-07-04 12:42:00,78.1,17.1,29.50,North,0,0.0,0.0,1,0.00,,,0.00,WUHU216HW,2013-07-04 16:42:00,
2013-07-04 12:47:00,78.1,17.1,29.50,North,0,0.0,0.0,1,0.00,,,0.00,WUHU216HW,2013-07-04 16:47:00,
2013-07-04 12:52:00,79.6,18.2,29.50,North,0,0.0,0.0,1,0.00,,,0.00,WUHU216HW,2013-07-04 16:52:00,
2013-07-04 12:57:00,79.9,18.6,29.50,North,0,0.0,0.0,1,0.00,,,0.00,WUHU216HW,2013-07-04 16:57:00,
2013-07-04 13:03:00,79.9,18.6,29.50,North,0,0.0,0.0,1,0.00,,,0.00,WUHU216HW,2013-07-04 17:03:00,
2013-07-04 13:08:00,80.3,18.8,29.50,North,0,0.0,0.0,1,0.00,,,0.00,WUHU216HW,2013-07-04 17:08:00,
2013-07-04 13:13:00,80.1,18.6,29.50,North,0,0.0,0.0,1,0.00,,,0.00,WUHU216HW,2013-07-04 17:13:00,
2013-07-04 13:18:00,80.3,18.8,29.50,North,0,0.0,0.0,1,0.00,,,0.00,WUHU216HW,2013-07-04 17:18:00,
2013-07-04 13:23:00,80.5,18.9,29.50,North,0,0.0,0.0,1,0.00,,,0.00,WUHU216HW,2013-07-04 17:23:00,
2013-07-04 13:28:00,80.6,19.1,29.50,North,0,0.0,0.0,1,0.00,,,0.00,WUHU216HW,2013-07-04 17:28:00,
2013-07-04 13:33:00,80.3,18.8,29.50,North,0,0.0,0.0,1,0.00,,,0.00,WUHU216HW,2013-07-04 17:33:00,
2013-07-04 13:38:00,80.3,18.8,29.50,North,0,0.0,0.0,1,0.00,,,0.00,WUHU216HW,2013-07-04 17:38:00,
2013-07-04 13:43:00,80.1,18.6,29.50,North,0,0.0,0.0,1,0.00,,,0.00,WUHU216HW,2013-07-04 17:43:00,
2013-07-04 13:48:00,80.1,18.6,29.50,North,0,0.0,0.0,1,0.00,,,0.00,WUHU216HW,2013-07-04 17:48:00,
2013-07-04 13:53:00,79.6,18.2,29.50,North,0,0.0,0.0,1,0.00,,,0.00,WUHU216HW,2013-07-04 17:53:00,
2013-07-04 13:58:00,79.2,17.9,29.50,North,0,0.0,0.0,1,0.00,,,0.00,WUHU216HW,2013-07-04 17:58:00,
2013-07-04 14:03:00,79.7,18.4,29.49,North,0,0.0,0.0,1,0.00,,,0.00,WUHU216HW,2013-07-04 18:03:00,
2013-07-04 14:08:00,79.9,18.6,29.49,North,0,0.0,0.0,1,0.00,,,0.00,WUHU216HW,2013-07-04 18:08:00,
2013-07-04 14:14:00,79.6,18.2,29.49,North,0,0.0,0.0,1,0.00,,,0.00,WUHU216HW,2013-07-04 18:14:00,
2013-07-04 14:19:00,79.6,18.2,29.49,North,0,0.0,0.0,1,0.00,,,0.00,WUHU216HW,2013-07-04 18:19:00,
2013-07-04 14:24:00,79.7,18.4,29.49,North,0,0.0,0.0,1,0.00,,,0.00,WUHU216HW,2013-07-04 18:24:00,
2013-07-04 14:29:00,79.4,18.1,29.49,North,0,0.0,0.0,1,0.00,,,0.00,WUHU216HW,2013-07-04 18:29:00,
2013-07-04 14:34:00,79.4,18.1,29.49,North,0,0.0,0.0,1,0.00,,,0.00,WUHU216HW,2013-07-04 18:34:00,
2013-07-04 14:39:00,79.4,18.1,29.48,North,0,0.0,0.0,1,0.00,,,0.00,WUHU216HW,2013-07-04 18:39:00,
2013-07-04 14:44:00,79.4,18.1,29.48,North,0,0.0,0.0,1,0.00,,,0.00,WUHU216HW,2013-07-04 18:44:00,
2013-07-04 14:49:00,79.0,17.8,29.48,North,0,0.0,0.0,1,0.00,,,0.00,WUHU216HW,2013-07-04 18:49:00,
2013-07-04 14:54:00,79.0,17.8,29.48,North,0,0.0,0.0,1,0.00,,,0.00,WUHU216HW,2013-07-04 18:54:00,
2013-07-04 14:59:00,78.8,17.6,29.48,North,0,0.0,0.0,1,0.00,,,0.00,WUHU216HW,2013-07-04 18:59:00,
2013-07-04 15:04:00,78.8,17.6,29.48,North,0,0.0,0.0,1,0.00,,,0.00,WUHU216HW,2013-07-04 19:04:00,
2013-07-04 15:09:00,78.5,17.4,29.48,North,0,0.0,0.0,1,0.00,,,0.00,WUHU216HW,2013-07-04 19:09:00,
2013-07-04 15:14:00,78.1,17.1,29.47,North,0,0.0,0.0,1,0.00,,,0.00,WUHU216HW,2013-07-04 19:14:00,
2013-07-04 15:19:00,77.8,16.9,29.48,North,0,0.0,0.0,1,0.00,,,0.00,WUHU216HW,2013-07-04 19:19:00,
2013-07-04 15:25:00,77.4,16.7,29.47,North,0,0.0,0.0,1,0.00,,,0.00,WUHU216HW,2013-07-04 19:25:00,
2013-07-04 15:30:00,76.7,16.1,29.47,North,0,0.0,0.0,1,0.00,,,0.00,WUHU216HW,2013-07-04 19:30:00,
2013-07-04 15:35:00,76.3,15.9,29.47,North,0,0.0,0.0,1,0.00,,,0.00,WUHU216HW,2013-07-04 19:35:00,
2013-07-04 15:40:00,75.6,15.2,29.47,North,0,0.0,0.0,1,0.00,,,0.00,WUHU216HW,2013-07-04 19:40:00,
2013-07-04 15:45:00,75.2,14.9,29.47,North,0,0.0,0.0,1,0.00,,,0.00,WUHU216HW,2013-07-04 19:45:00,
2013-07-04 15:50:00,75.2,14.9,29.47,North,0,0.0,0.0,1,0.00,,,0.00,WUHU216HW,2013-07-04 19:50:00,
2013-07-04 15:55:00,74.9,14.7,29.47,North,0,0.0,0.0,1,0.00,,,0.00,WUHU216HW,2013-07-04 19:55:00,
2013-07-04 16:00:00,74.7,14.6,29.47,North,0,0.0,0.0,1,0.00,,,0.00,WUHU216HW,2013-07-04 20:00:00,
2013-07-04 16:05:00,74.3,14.3,29.46,North,0,0.0,0.0,1,0.00,,,0.00,WUHU216HW,2013-07-04 20:05:00,
2013-07-04 16:10:00,74.3,14.3,29.47,North,0,0.0,0.0,1,0.00,,,0.00,WUHU216HW,2013-07-04 20:10:00,
2013-07-04 16:15:00,74.5,14.4,29.46,North,0,0.0,0.0,1,0.00,,,0.00,WUHU216HW,2013-07-04 20:15:00,
2013-07-04 16:20:00,74.7,14.6,29.46,North,0,0.0,0.0,1,0.00,,,0.00,WUHU216HW,2013-07-04 20:20:00,
2013-07-04 16:25:00,75.4,15.1,29.46,North,0,0.0,0.0,1,0.00,,,0.00,WUHU216HW,2013-07-04 20:25:00,
2013-07-04 16:30:00,75.6,15.2,29.46,North,0,0.0,0.0,1,0.00,,,0.00,WUHU216HW,2013-07-04 20:30:00,
2013-07-04 16:35:00,75.6,15.2,29.46,North,0,0.0,0.0,1,0.00,,,0.00,WUHU216HW,2013-07-04 20:35:00,
2013-07-04 16:40:00,75.6,15.2,29.45,North,0,0.0,0.0,1,0.00,,,0.00,WUHU216HW,2013-07-04 20:40:00,
2013-07-04 16:45:00,76.0,15.5,29.45,North,0,0.0,0.0,1,0.00,,,0.00,WUHU216HW,2013-07-04 20:45:00,
2013-07-04 16:50:00,76.1,15.7,29.45,North,0,0.0,0.0,1,0.00,,,0.00,WUHU216HW,2013-07-04 20:50:00,
2013-07-04 16:56:00,76.3,15.9,29.45,North,0,0.0,0.0,1,0.00,,,0.00,WUHU216HW,2013-07-04 20:56:00,
2013-07-04 17:01:00,76.5,15.9,29.45,North,0,0.0,0.0,1,0.00,,,0.00,WUHU216HW,2013-07-04 21:01:00,
2013-07-04 17:06:00,76.7,16.1,29.45,North,0,0.0,0.0,1,0.00,,,0.00,WUHU216HW,2013-07-04 21:06:00,
2013-07-04 17:11:00,76.9,16.2,29.45,North,0,0.0,0.0,1,0.00,,,0.00,WUHU216HW,2013-07-04 21:11:00,
2013-07-04 17:16:00,76.7,16.1,29.45,North,0,0.0,0.0,1,0.00,,,0.00,WUHU216HW,2013-07-04 21:16:00,
2013-07-04 17:21:00,76.7,16.1,29.45,North,0,0.0,0.0,1,0.00,,,0.00,WUHU216HW,2013-07-04 21:21:00,
2013-07-04 17:26:00,76.3,15.9,29.46,North,0,0.0,0.0,1,0.00,,,0.00,WUHU216HW,2013-07-04 21:26:00,
2013-07-04 17:31:00,75.8,15.4,29.45,North,0,0.0,0.0,1,0.00,,,0.00,WUHU216HW,2013-07-04 21:31:00,
2013-07-04 17:36:00,75.4,15.1,29.45,North,0,0.0,0.0,1,0.00,,,0.00,WUHU216HW,2013-07-04 21:36:00,
2013-07-04 17:41:00,75.2,14.9,29.44,North,0,0.0,0.0,1,0.00,,,0.00,WUHU216HW,2013-07-04 21:41:00,
2013-07-04 17:46:00,75.1,14.9,29.45,North,0,0.0,0.0,1,0.00,,,0.00,WUHU216HW,2013-07-04 21:46:00,
2013-07-04 17:51:00,74.7,14.6,29.45,North,0,0.0,0.0,1,0.00,,,0.00,WUHU216HW,2013-07-04 21:51:00,
2013-07-04 17:56:00,74.7,14.6,29.45,North,0,0.0,0.0,1,0.00,,,0.00,WUHU216HW,2013-07-04 21:56:00,
2013-07-04 18:01:00,74.5,14.4,29.45,North,0,0.0,0.0,1,0.00,,,0.00,WUHU216HW,2013-07-04 22:01:00,
2013-07-04 18:06:00,74.5,14.4,29.45,North,0,0.0,0.0,1,0.00,,,0.00,WUHU216HW,2013-07-04 22:06:00,
2013-07-04 18:11:00,74.2,14.2,29.45,North,0,0.0,0.0,1,0.00,,,0.00,WUHU216HW,2013-07-04 22:11:00,
2013-07-04 18:16:00,74.2,14.2,29.45,North,0,0.0,0.0,1,0.00,,,0.00,WUHU216HW,2013-07-04 22:16:00,
2013-07-04 18:21:00,74.2,14.2,29.45,North,0,0.0,0.0,1,0.00,,,0.00,WUHU216HW,2013-07-04 22:21:00,
2013-07-04 18:26:00,74.3,14.3,29.45,North,0,0.0,0.0,1,0.00,,,0.00,WUHU216HW,2013-07-04 22:26:00,
2013-07-04 18:31:00,74.3,14.3,29.45,North,0,0.0,0.0,1,0.00,,,0.00,WUHU216HW,2013-07-04 22:31:00,
2013-07-04 18:36:00,74.3,14.3,29.44,North,0,0.0,0.0,1,0.00,,,0.00,WUHU216HW,2013-07-04 22:36:00,
2013-07-04 18:41:00,74.2,14.2,29.44,North,0,0.0,0.0,1,0.00,,,0.00,WUHU216HW,2013-07-04 22:41:00,
2013-07-04 18:46:00,74.3,14.3,29.44,North,0,0.0,0.0,1,0.00,,,0.00,WUHU216HW,2013-07-04 22:46:00,
2013-07-04 18:51:00,74.3,14.3,29.44,North,0,0.0,0.0,1,0.00,,,0.00,WUHU216HW,2013-07-04 22:51:00,
2013-07-04 18:56:00,74.2,14.2,29.44,North,0,0.0,0.0,1,0.00,,,0.00,WUHU216HW,2013-07-04 22:56:00,
2013-07-04 19:01:00,74.2,14.2,29.43,North,0,0.0,0.0,1,0.00,,,0.00,WUHU216HW,2013-07-04 23:01:00,
2013-07-04 19:06:00,74.2,14.2,29.44,North,0,0.0,0.0,1,0.00,,,0.00,WUHU216HW,2013-07-04 23:06:00,
2013-07-04 19:11:00,74.0,14.0,29.44,North,0,0.0,0.0,1,0.00,,,0.00,WUHU216HW,2013-07-04 23:11:00,
2013-07-04 19:16:00,74.0,14.0,29.44,North,0,0.0,0.0,1,0.00,,,0.00,WUHU216HW,2013-07-04 23:16:00,
2013-07-04 19:22:00,73.8,14.0,29.43,North,0,0.0,0.0,1,0.00,,,0.00,WUHU216HW,2013-07-04 23:22:00,
2013-07-04 19:27:00,73.8,14.0,29.43,North,0,0.0,0.0,1,0.00,,,0.00,WUHU216HW,2013-07-04 23:27:00,
2013-07-04 19:32:00,73.4,13.7,29.43,North,0,0.0,0.0,1,0.00,,,0.00,WUHU216HW,2013-07-04 23:32:00,
2013-07-04 19:37:00,73.4,13.7,29.44,North,0,0.0,0.0,1,0.00,,,0.00,WUHU216HW,2013-07-04 23:37:00,
2013-07-04 19:42:00,73.1,13.4,29.43,North,0,0.0,0.0,1,0.00,,,0.00,WUHU216HW,2013-07-04 23:42:00,
2013-07-04 19:47:00,72.9,13.2,29.43,North,0,0.0,0.0,1,0.00,,,0.00,WUHU216HW,2013-07-04 23:47:00,
2013-07-04 19:52:00,72.7,13.2,29.43,North,0,0.0,0.0,1,0.00,,,0.00,WUHU216HW,2013-07-04 23:52:00,
2013-07-04 19:57:00,72.7,13.2,29.44,North,0,0.0,0.0,1,0.00,,,0.00,WUHU216HW,2013-07-04 23:57:00,
2013-07-04 20:02:00,72.5,13.0,29.44,North,0,0.0,0.0,1,0.00,,,0.00,WUHU216HW,2013-07-05 00:02:00,
2013-07-04 20:07:00,72.4,12.8,29.44,North,0,0.0,0.0,1,0.00,,,0.00,WUHU216HW,2013-07-05 00:07:00,
2013-07-04 20:12:00,72.4,12.8,29.44,North,0,0.0,0.0,1,0.00,,,0.00,WUHU216HW,2013-07-05 00:12:00,
2013-07-04 20:17:00,72.4,12.8,29.44,North,0,0.0,0.0,1,0.00,,,0.00,WUHU216HW,2013-07-05 00:17:00,
2013-07-04 20:22:00,72.2,12.7,29.44,North,0,0.0,0.0,1,0.00,,,0.00,WUHU216HW,2013-07-05 00:22:00,
2013-07-04 20:27:00,72.0,12.5,29.45,North,0,0.0,0.0,1,0.00,,,0.00,WUHU216HW,2013-07-05 00:27:00,
2013-07-04 20:32:00,72.0,12.5,29.45,North,0,0.0,0.0,1,0.00,,,0.00,WUHU216HW,2013-07-05 00:32:00,
2013-07-04 20:37:00,71.8,12.4,29.44,North,0,0.0,0.0,1,0.00,,,0.00,WUHU216HW,2013-07-05 00:37:00,
2013-07-04 20:42:00,71.6,12.2,29.44,North,0,0.0,0.0,1,0.00,,,0.00,WUHU216HW,2013-07-05 00:42:00,
2013-07-04 20:47:00,71.6,12.2,29.45,North,0,0.0,0.0,1,0.00,,,0.00,WUHU216HW,2013-07-05 00:47:00,
2013-07-04 20:52:00,71.5,12.1,29.45,North,0,0.0,0.0,1,0.00,,,0.00,WUHU216HW,2013-07-05 00:52:00,
2013-07-04 20:57:00,71.1,11.8,29.45,North,0,0.0,0.0,1,0.00,,,0.00,WUHU216HW,2013-07-05 00:57:00,
2013-07-04 21:03:00,70.9,11.7,29.45,North,0,0.0,0.0,1,0.00,,,0.00,WUHU216HW,2013-07-05 01:03:00,
2013-07-04 21:08:00,70.9,11.7,29.45,North,0,0.0,0.0,1,0.00,,,0.00,WUHU216HW,2013-07-05 01:08:00,
2013-07-04 21:13:00,70.7,11.5,29.45,North,0,0.0,0.0,1,0.00,,,0.00,WUHU216HW,2013-07-05 01:13:00,
2013-07-04 21:18:00,70.6,11.3,29.44,North,0,0.0,0.0,1,0.00,,,0.00,WUHU216HW,2013-07-05 01:18:00,
2013-07-04 21:23:00,70.6,11.3,29.45,North,0,0.0,0.0,1,0.00,,,0.00,WUHU216HW,2013-07-05 01:23:00,
2013-07-04 21:28:00,70.4,11.3,29.45,North,0,0.0,0.0,1,0.00,,,0.00,WUHU216HW,2013-07-05 01:28:00,
2013-07-04 21:33:00,70.2,11.1,29.45,North,0,0.0,0.0,1,0.00,,,0.00,WUHU216HW,2013-07-05 01:33:00,
2013-07-04 21:38:00,70.2,11.1,29.45,North,0,0.0,0.0,1,0.00,,,0.00,WUHU216HW,2013-07-05 01:38:00,
2013-07-04 21:43:00,70.0,11.0,29.44,North,0,0.0,0.0,1,0.00,,,0.00,WUHU216HW,2013-07-05 01:43:00,
2013-07-04 21:48:00,69.8,10.8,29.44,North,0,0.0,0.0,1,0.00,,,0.00,WUHU216HW,2013-07-05 01:48:00,
2013-07-04 21:53:00,69.8,10.8,29.45,North,0,0.0,0.0,1,0.00,,,0.00,WUHU216HW,2013-07-05 01:53:00,
2013-07-04 21:58:00,69.7,10.7,29.44,North,0,0.0,0.0,1,0.00,,,0.00,WUHU216HW,2013-07-05 01:58:00,
2013-07-04 22:03:00,69.5,10.5,29.45,North,0,0.0,0.0,1,0.00,,,0.00,WUHU216HW,2013-07-05 02:03:00,
2013-07-04 22:08:00,69.5,10.5,29.45,North,0,0.0,0.0,1,0.00,,,0.00,WUHU216HW,2013-07-05 02:08:00,
2013-07-04 22:13:00,69.3,10.5,29.44,North,0,0.0,0.0,1,0.00,,,0.00,WUHU216HW,2013-07-05 02:13:00,
2013-07-04 22:18:00,69.1,10.3,29.45,North,0,0.0,0.0,1,0.00,,,0.00,WUHU216HW,2013-07-05 02:18:00,
2013-07-04 22:24:00,68.9,10.2,29.45,North,0,0.0,0.0,1,0.00,,,0.00,WUHU216HW,2013-07-05 02:24:00,
2013-07-04 22:29:00,68.8,10.1,29.45,North,0,0.0,0.0,1,0.00,,,0.00,WUHU216HW,2013-07-05 02:29:00,
2013-07-04 22:34:00,68.6,9.9,29.45,North,0,0.0,0.0,1,0.00,,,0.00,WUHU216HW,2013-07-05 02:34:00,
2013-07-04 22:39:00,68.6,9.9,29.44,North,0,0.0,0.0,1,0.00,,,0.00,WUHU216HW,2013-07-05 02:39:00,
2013-07-04 22:44:00,68.4,9.8,29.45,North,0,0.0,0.0,1,0.00,,,0.00,WUHU216HW,2013-07-05 02:44:00,
2013-07-04 22:49:00,68.4,9.8,29.45,North,0,0.0,0.0,1,0.00,,,0.00,WUHU216HW,2013-07-05 02:49:00,
2013-07-04 22:54:00,68.2,9.6,29.44,North,0,0.0,0.0,1,0.00,,,0.00,WUHU216HW,2013-07-05 02:54:00,
2013-07-04 22:59:00,68.2,9.6,29.45,North,0,0.0,0.0,1,0.00,,,0.00,WUHU216HW,2013-07-05 02:59:00,
2013-07-04 23:04:00,68.2,9.6,29.45,North,0,0.0,0.0,1,0.00,,,0.00,WUHU216HW,2013-07-05 03:04:00,
2013-07-04 23:09:00,68.2,9.6,29.45,North,0,0.0,0.0,1,0.00,,,0.00,WUHU216HW,2013-07-05 03:09:00,
2013-07-04 23:14:00,68.2,9.6,29.46,North,0,0.0,0.0,1,0.00,,,0.00,WUHU216HW,2013-07-05 03:14:00,
2013-07-04 23:19:00,68.2,9.6,29.46,North,0,0.0,0.0,1,0.00,,,0.00,WUHU216HW,2013-07-05 03:19:00,
2013-07-04 23:24:00,68.2,9.6,29.46,North,0,0.0,0.0,1,0.00,,,0.00,WUHU216HW,2013-07-05 03:24:00,
2013-07-04 23:29:00,68.2,9.6,29.46,North,0,0.0,0.0,1,0.00,,,0.00,WUHU216HW,2013-07-05 03:29:00,
2013-07-04 23:34:00,68.4,9.8,29.46,North,0,0.0,0.0,1,0.00,,,0.00,WUHU216HW,2013-07-05 03:34:00,
2013-07-04 23:40:00,68.6,9.9,29.46,North,0,0.0,0.0,1,0.00,,,0.00,WUHU216HW,2013-07-05 03:40:00,
2013-07-04 23:45:00,68.6,9.9,29.46,North,0,0.0,0.0,1,0.00,,,0.00,WUHU216HW,2013-07-05 03:45:00,
2013-07-04 23:50:00,68.6,9.9,29.45,North,0,0.0,0.0,1,0.00,,,0.00,WUHU216HW,2013-07-05 03:50:00,
2013-07-04 23:55:00,68.8,10.1,29.45,North,0,0.0,0.0,1,0.00,,,0.00,WUHU216HW,2013-07-05 03:55:00,